sensor_id;sensor_type;location;lat;lon;timestamp;P1;durP1;ratioP1;P2;durP2;ratioP2
64887;SDS011;51386;53.082;8.816;2023-04-22T00:00:04;5.63;;;5.10;;
64887;SDS011;51386;53.082;8.816;2023-04-22T00:02:34;6.77;;;5.60;;
64887;SDS011;51386;53.082;8.816;2023-04-22T00:05:02;6.03;;;5.43;;
64887;SDS011;51386;53.082;8.816;2023-04-22T00:07:30;7.63;;;5.83;;
64887;SDS011;51386;53.082;8.816;2023-04-22T00:09:58;12.20;;;6.87;;
64887;SDS011;51386;53.082;8.816;2023-04-22T00:12:25;6.23;;;5.60;;
64887;SDS011;51386;53.082;8.816;2023-04-22T00:14:52;7.13;;;5.50;;
64887;SDS011;51386;53.082;8.816;2023-04-22T00:17:19;6.03;;;5.50;;
64887;SDS011;51386;53.082;8.816;2023-04-22T00:19:46;7.00;;;5.47;;
64887;SDS011;51386;53.082;8.816;2023-04-22T00:22:13;6.57;;;5.97;;
64887;SDS011;51386;53.082;8.816;2023-04-22T00:24:40;7.67;;;5.13;;
64887;SDS011;51386;53.082;8.816;2023-04-22T00:27:09;5.97;;;5.40;;
64887;SDS011;51386;53.082;8.816;2023-04-22T00:29:36;5.80;;;5.30;;
64887;SDS011;51386;53.082;8.816;2023-04-22T00:32:04;6.23;;;5.63;;
64887;SDS011;51386;53.082;8.816;2023-04-22T00:34:31;6.00;;;5.40;;
64887;SDS011;51386;53.082;8.816;2023-04-22T00:36:58;6.03;;;5.30;;
64887;SDS011;51386;53.082;8.816;2023-04-22T00:39:26;6.87;;;5.10;;
64887;SDS011;51386;53.082;8.816;2023-04-22T00:41:53;6.63;;;4.97;;
64887;SDS011;51386;53.082;8.816;2023-04-22T00:44:22;8.80;;;5.40;;
64887;SDS011;51386;53.082;8.816;2023-04-22T00:46:51;5.60;;;5.13;;
64887;SDS011;51386;53.082;8.816;2023-04-22T00:49:18;7.50;;;5.50;;
64887;SDS011;51386;53.082;8.816;2023-04-22T00:51:46;6.60;;;5.90;;
64887;SDS011;51386;53.082;8.816;2023-04-22T00:54:13;6.10;;;5.50;;
64887;SDS011;51386;53.082;8.816;2023-04-22T00:56:39;6.00;;;5.40;;
64887;SDS011;51386;53.082;8.816;2023-04-22T00:59:07;5.50;;;5.10;;
64887;SDS011;51386;53.082;8.816;2023-04-22T01:01:37;6.03;;;5.53;;
64887;SDS011;51386;53.082;8.816;2023-04-22T01:04:04;8.03;;;5.20;;
64887;SDS011;51386;53.082;8.816;2023-04-22T01:06:32;6.13;;;5.33;;
64887;SDS011;51386;53.082;8.816;2023-04-22T01:09:00;6.57;;;5.43;;
64887;SDS011;51386;53.082;8.816;2023-04-22T01:11:27;6.00;;;5.40;;
64887;SDS011;51386;53.082;8.816;2023-04-22T01:13:55;7.00;;;6.17;;
64887;SDS011;51386;53.082;8.816;2023-04-22T01:16:22;7.20;;;5.77;;
64887;SDS011;51386;53.082;8.816;2023-04-22T01:18:52;6.90;;;6.20;;
64887;SDS011;51386;53.082;8.816;2023-04-22T01:21:19;6.90;;;6.20;;
64887;SDS011;51386;53.082;8.816;2023-04-22T01:23:47;6.63;;;5.93;;
64887;SDS011;51386;53.082;8.816;2023-04-22T01:26:14;7.23;;;5.90;;
64887;SDS011;51386;53.082;8.816;2023-04-22T01:28:41;6.80;;;5.70;;
64887;SDS011;51386;53.082;8.816;2023-04-22T01:31:09;7.30;;;6.03;;
64887;SDS011;51386;53.082;8.816;2023-04-22T01:33:36;7.27;;;6.57;;
64887;SDS011;51386;53.082;8.816;2023-04-22T01:36:03;6.77;;;6.07;;
64887;SDS011;51386;53.082;8.816;2023-04-22T01:38:31;6.57;;;5.90;;
64887;SDS011;51386;53.082;8.816;2023-04-22T01:41:01;6.70;;;5.67;;
64887;SDS011;51386;53.082;8.816;2023-04-22T01:43:28;6.50;;;5.90;;
64887;SDS011;51386;53.082;8.816;2023-04-22T01:45:56;6.43;;;5.63;;
64887;SDS011;51386;53.082;8.816;2023-04-22T01:48:23;7.07;;;6.10;;
64887;SDS011;51386;53.082;8.816;2023-04-22T01:50:51;6.73;;;6.13;;
64887;SDS011;51386;53.082;8.816;2023-04-22T01:53:18;7.03;;;6.37;;
64887;SDS011;51386;53.082;8.816;2023-04-22T01:55:45;8.13;;;6.27;;
64887;SDS011;51386;53.082;8.816;2023-04-22T01:58:14;7.47;;;6.70;;
64887;SDS011;51386;53.082;8.816;2023-04-22T02:00:41;7.10;;;6.40;;
64887;SDS011;51386;53.082;8.816;2023-04-22T02:03:08;6.63;;;6.03;;
64887;SDS011;51386;53.082;8.816;2023-04-22T02:05:35;7.00;;;6.17;;
64887;SDS011;51386;53.082;8.816;2023-04-22T02:08:03;7.10;;;6.50;;
64887;SDS011;51386;53.082;8.816;2023-04-22T02:10:30;7.43;;;6.70;;
64887;SDS011;51386;53.082;8.816;2023-04-22T02:12:57;8.87;;;6.40;;
64887;SDS011;51386;53.082;8.816;2023-04-22T02:15:25;6.93;;;6.20;;
64887;SDS011;51386;53.082;8.816;2023-04-22T02:17:52;6.33;;;5.73;;
64887;SDS011;51386;53.082;8.816;2023-04-22T02:20:20;7.33;;;6.63;;
64887;SDS011;51386;53.082;8.816;2023-04-22T02:22:46;7.00;;;6.40;;
64887;SDS011;51386;53.082;8.816;2023-04-22T02:29:19;8.70;;;7.60;;
64887;SDS011;51386;53.082;8.816;2023-04-22T02:31:48;8.27;;;7.47;;
64887;SDS011;51386;53.082;8.816;2023-04-22T02:34:15;7.73;;;7.03;;
64887;SDS011;51386;53.082;8.816;2023-04-22T02:36:42;7.90;;;7.10;;
64887;SDS011;51386;53.082;8.816;2023-04-22T02:39:09;7.77;;;6.97;;
64887;SDS011;51386;53.082;8.816;2023-04-22T02:41:36;8.60;;;7.03;;
64887;SDS011;51386;53.082;8.816;2023-04-22T02:44:03;9.10;;;7.67;;
64887;SDS011;51386;53.082;8.816;2023-04-22T02:46:30;7.00;;;6.40;;
64887;SDS011;51386;53.082;8.816;2023-04-22T02:48:59;9.17;;;7.20;;
64887;SDS011;51386;53.082;8.816;2023-04-22T02:51:26;9.10;;;7.63;;
64887;SDS011;51386;53.082;8.816;2023-04-22T02:53:53;7.43;;;6.77;;
64887;SDS011;51386;53.082;8.816;2023-04-22T02:56:20;8.17;;;7.47;;
64887;SDS011;51386;53.082;8.816;2023-04-22T02:58:47;9.07;;;7.77;;
64887;SDS011;51386;53.082;8.816;2023-04-22T03:01:14;8.10;;;7.40;;
64887;SDS011;51386;53.082;8.816;2023-04-22T03:03:41;9.20;;;8.17;;
64887;SDS011;51386;53.082;8.816;2023-04-22T03:06:09;8.00;;;7.30;;
64887;SDS011;51386;53.082;8.816;2023-04-22T03:08:36;8.27;;;7.47;;
64887;SDS011;51386;53.082;8.816;2023-04-22T03:11:03;9.70;;;7.60;;
64887;SDS011;51386;53.082;8.816;2023-04-22T03:13:30;8.40;;;7.43;;
64887;SDS011;51386;53.082;8.816;2023-04-22T03:15:57;8.97;;;7.80;;
64887;SDS011;51386;53.082;8.816;2023-04-22T03:18:24;8.87;;;7.73;;
64887;SDS011;51386;53.082;8.816;2023-04-22T03:20:51;8.17;;;7.33;;
64887;SDS011;51386;53.082;8.816;2023-04-22T03:23:19;8.70;;;7.90;;
64887;SDS011;51386;53.082;8.816;2023-04-22T03:25:46;8.70;;;7.80;;
64887;SDS011;51386;53.082;8.816;2023-04-22T03:28:13;10.07;;;7.93;;
64887;SDS011;51386;53.082;8.816;2023-04-22T03:30:40;12.80;;;7.73;;
64887;SDS011;51386;53.082;8.816;2023-04-22T03:33:07;9.83;;;8.93;;
64887;SDS011;51386;53.082;8.816;2023-04-22T03:35:34;9.23;;;8.00;;
64887;SDS011;51386;53.082;8.816;2023-04-22T03:38:01;10.17;;;8.53;;
64887;SDS011;51386;53.082;8.816;2023-04-22T03:40:29;9.03;;;7.83;;
64887;SDS011;51386;53.082;8.816;2023-04-22T03:42:56;8.27;;;7.47;;
64887;SDS011;51386;53.082;8.816;2023-04-22T03:45:23;9.63;;;8.17;;
64887;SDS011;51386;53.082;8.816;2023-04-22T03:47:50;8.70;;;7.80;;
64887;SDS011;51386;53.082;8.816;2023-04-22T03:50:18;8.57;;;7.77;;
64887;SDS011;51386;53.082;8.816;2023-04-22T03:52:45;8.90;;;8.17;;
64887;SDS011;51386;53.082;8.816;2023-04-22T03:55:11;8.90;;;8.00;;
64887;SDS011;51386;53.082;8.816;2023-04-22T03:57:40;10.90;;;8.33;;
64887;SDS011;51386;53.082;8.816;2023-04-22T04:00:07;8.23;;;7.53;;
64887;SDS011;51386;53.082;8.816;2023-04-22T04:02:35;9.23;;;7.37;;
64887;SDS011;51386;53.082;8.816;2023-04-22T04:05:02;9.13;;;8.23;;
64887;SDS011;51386;53.082;8.816;2023-04-22T04:07:30;8.87;;;7.97;;
64887;SDS011;51386;53.082;8.816;2023-04-22T04:09:57;11.87;;;7.60;;
64887;SDS011;51386;53.082;8.816;2023-04-22T04:12:24;10.37;;;8.43;;
64887;SDS011;51386;53.082;8.816;2023-04-22T04:14:52;10.57;;;8.53;;
64887;SDS011;51386;53.082;8.816;2023-04-22T04:17:19;8.83;;;7.93;;
64887;SDS011;51386;53.082;8.816;2023-04-22T04:19:47;9.80;;;8.47;;
64887;SDS011;51386;53.082;8.816;2023-04-22T04:22:13;9.73;;;8.73;;
64887;SDS011;51386;53.082;8.816;2023-04-22T04:24:40;7.97;;;7.23;;
64887;SDS011;51386;53.082;8.816;2023-04-22T04:27:07;9.80;;;8.80;;
64887;SDS011;51386;53.082;8.816;2023-04-22T04:29:35;9.77;;;8.87;;
64887;SDS011;51386;53.082;8.816;2023-04-22T04:32:03;11.53;;;8.80;;
64887;SDS011;51386;53.082;8.816;2023-04-22T04:34:30;8.33;;;7.53;;
64887;SDS011;51386;53.082;8.816;2023-04-22T04:36:59;9.30;;;8.37;;
64887;SDS011;51386;53.082;8.816;2023-04-22T04:39:26;9.13;;;8.23;;
64887;SDS011;51386;53.082;8.816;2023-04-22T04:41:53;10.03;;;8.47;;
64887;SDS011;51386;53.082;8.816;2023-04-22T04:44:20;9.63;;;8.73;;
64887;SDS011;51386;53.082;8.816;2023-04-22T04:46:48;11.17;;;9.10;;
64887;SDS011;51386;53.082;8.816;2023-04-22T04:49:17;10.67;;;9.13;;
64887;SDS011;51386;53.082;8.816;2023-04-22T04:51:44;9.70;;;8.80;;
64887;SDS011;51386;53.082;8.816;2023-04-22T04:54:10;10.13;;;8.53;;
64887;SDS011;51386;53.082;8.816;2023-04-22T04:56:37;9.40;;;8.43;;
64887;SDS011;51386;53.082;8.816;2023-04-22T04:59:04;9.90;;;9.00;;
64887;SDS011;51386;53.082;8.816;2023-04-22T05:01:31;10.40;;;9.40;;
64887;SDS011;51386;53.082;8.816;2023-04-22T05:03:58;10.13;;;9.13;;
64887;SDS011;51386;53.082;8.816;2023-04-22T05:06:27;9.93;;;8.30;;
64887;SDS011;51386;53.082;8.816;2023-04-22T05:08:53;9.23;;;8.33;;
64887;SDS011;51386;53.082;8.816;2023-04-22T05:11:20;10.00;;;8.23;;
64887;SDS011;51386;53.082;8.816;2023-04-22T05:13:47;9.87;;;8.90;;
64887;SDS011;51386;53.082;8.816;2023-04-22T05:16:14;10.00;;;8.97;;
64887;SDS011;51386;53.082;8.816;2023-04-22T05:18:41;9.97;;;8.97;;
64887;SDS011;51386;53.082;8.816;2023-04-22T05:21:08;9.63;;;8.70;;
64887;SDS011;51386;53.082;8.816;2023-04-22T05:23:36;9.43;;;8.53;;
64887;SDS011;51386;53.082;8.816;2023-04-22T05:26:04;9.83;;;8.83;;
64887;SDS011;51386;53.082;8.816;2023-04-22T05:28:31;9.60;;;8.60;;
64887;SDS011;51386;53.082;8.816;2023-04-22T05:30:58;10.53;;;9.27;;
64887;SDS011;51386;53.082;8.816;2023-04-22T05:33:25;10.03;;;9.00;;
64887;SDS011;51386;53.082;8.816;2023-04-22T05:35:52;8.83;;;7.90;;
64887;SDS011;51386;53.082;8.816;2023-04-22T05:38:19;9.33;;;8.53;;
64887;SDS011;51386;53.082;8.816;2023-04-22T05:40:47;9.37;;;8.37;;
64887;SDS011;51386;53.082;8.816;2023-04-22T05:43:14;10.27;;;9.20;;
64887;SDS011;51386;53.082;8.816;2023-04-22T05:45:41;10.80;;;9.20;;
64887;SDS011;51386;53.082;8.816;2023-04-22T05:48:08;11.30;;;9.53;;
64887;SDS011;51386;53.082;8.816;2023-04-22T05:50:35;12.37;;;8.87;;
64887;SDS011;51386;53.082;8.816;2023-04-22T05:53:02;10.17;;;8.83;;
64887;SDS011;51386;53.082;8.816;2023-04-22T05:55:29;9.90;;;8.87;;
64887;SDS011;51386;53.082;8.816;2023-04-22T05:57:57;9.60;;;8.60;;
64887;SDS011;51386;53.082;8.816;2023-04-22T06:00:25;11.67;;;9.27;;
64887;SDS011;51386;53.082;8.816;2023-04-22T06:02:51;9.90;;;9.03;;
64887;SDS011;51386;53.082;8.816;2023-04-22T06:05:19;8.80;;;8.10;;
64887;SDS011;51386;53.082;8.816;2023-04-22T06:07:46;9.17;;;8.37;;
64887;SDS011;51386;53.082;8.816;2023-04-22T06:10:13;9.97;;;8.70;;
64887;SDS011;51386;53.082;8.816;2023-04-22T06:12:40;9.30;;;8.40;;
64887;SDS011;51386;53.082;8.816;2023-04-22T06:15:08;9.03;;;8.03;;
64887;SDS011;51386;53.082;8.816;2023-04-22T06:17:36;8.43;;;7.73;;
64887;SDS011;51386;53.082;8.816;2023-04-22T06:20:04;10.43;;;9.40;;
64887;SDS011;51386;53.082;8.816;2023-04-22T06:22:33;10.97;;;8.53;;
64887;SDS011;51386;53.082;8.816;2023-04-22T06:24:59;11.50;;;9.07;;
64887;SDS011;51386;53.082;8.816;2023-04-22T06:27:26;9.80;;;8.80;;
64887;SDS011;51386;53.082;8.816;2023-04-22T06:29:53;9.47;;;8.47;;
64887;SDS011;51386;53.082;8.816;2023-04-22T06:32:22;8.30;;;7.50;;
64887;SDS011;51386;53.082;8.816;2023-04-22T06:34:48;9.37;;;8.40;;
64887;SDS011;51386;53.082;8.816;2023-04-22T06:37:15;8.40;;;7.40;;
64887;SDS011;51386;53.082;8.816;2023-04-22T06:39:43;9.67;;;8.77;;
64887;SDS011;51386;53.082;8.816;2023-04-22T06:42:10;9.53;;;8.53;;
64887;SDS011;51386;53.082;8.816;2023-04-22T06:44:37;9.90;;;8.93;;
64887;SDS011;51386;53.082;8.816;2023-04-22T06:47:03;9.77;;;8.90;;
64887;SDS011;51386;53.082;8.816;2023-04-22T06:49:32;9.47;;;8.00;;
64887;SDS011;51386;53.082;8.816;2023-04-22T06:52:00;10.63;;;8.30;;
64887;SDS011;51386;53.082;8.816;2023-04-22T06:54:27;9.77;;;8.77;;
64887;SDS011;51386;53.082;8.816;2023-04-22T06:56:54;9.93;;;8.93;;
64887;SDS011;51386;53.082;8.816;2023-04-22T06:59:21;9.40;;;8.43;;
64887;SDS011;51386;53.082;8.816;2023-04-22T07:01:48;10.10;;;9.00;;
64887;SDS011;51386;53.082;8.816;2023-04-22T07:04:15;9.30;;;8.47;;
64887;SDS011;51386;53.082;8.816;2023-04-22T07:06:43;9.60;;;8.20;;
64887;SDS011;51386;53.082;8.816;2023-04-22T07:09:11;9.77;;;8.77;;
64887;SDS011;51386;53.082;8.816;2023-04-22T07:11:38;9.70;;;8.80;;
64887;SDS011;51386;53.082;8.816;2023-04-22T07:14:05;9.83;;;8.27;;
64887;SDS011;51386;53.082;8.816;2023-04-22T07:16:32;10.90;;;8.37;;
64887;SDS011;51386;53.082;8.816;2023-04-22T07:18:59;12.13;;;8.57;;
64887;SDS011;51386;53.082;8.816;2023-04-22T07:21:26;12.07;;;8.57;;
64887;SDS011;51386;53.082;8.816;2023-04-22T07:23:54;11.33;;;8.83;;
64887;SDS011;51386;53.082;8.816;2023-04-22T07:26:21;8.87;;;7.73;;
64887;SDS011;51386;53.082;8.816;2023-04-22T07:28:48;9.50;;;8.60;;
64887;SDS011;51386;53.082;8.816;2023-04-22T07:31:15;9.10;;;8.07;;
64887;SDS011;51386;53.082;8.816;2023-04-22T07:33:42;10.27;;;7.60;;
64887;SDS011;51386;53.082;8.816;2023-04-22T07:36:09;9.43;;;8.43;;
64887;SDS011;51386;53.082;8.816;2023-04-22T07:38:36;10.20;;;9.20;;
64887;SDS011;51386;53.082;8.816;2023-04-22T07:41:04;8.57;;;7.73;;
64887;SDS011;51386;53.082;8.816;2023-04-22T07:43:31;9.20;;;8.23;;
64887;SDS011;51386;53.082;8.816;2023-04-22T07:45:58;9.07;;;7.37;;
64887;SDS011;51386;53.082;8.816;2023-04-22T07:48:26;9.03;;;7.90;;
64887;SDS011;51386;53.082;8.816;2023-04-22T07:50:53;8.97;;;8.07;;
64887;SDS011;51386;53.082;8.816;2023-04-22T07:53:20;8.53;;;7.73;;
64887;SDS011;51386;53.082;8.816;2023-04-22T07:55:46;10.57;;;7.83;;
64887;SDS011;51386;53.082;8.816;2023-04-22T07:58:16;8.03;;;7.30;;
64887;SDS011;51386;53.082;8.816;2023-04-22T08:00:43;13.30;;;7.53;;
64887;SDS011;51386;53.082;8.816;2023-04-22T08:03:10;9.77;;;6.73;;
64887;SDS011;51386;53.082;8.816;2023-04-22T08:05:37;8.37;;;7.53;;
64887;SDS011;51386;53.082;8.816;2023-04-22T08:08:04;7.73;;;7.03;;
64887;SDS011;51386;53.082;8.816;2023-04-22T08:10:32;9.00;;;6.90;;
64887;SDS011;51386;53.082;8.816;2023-04-22T08:12:59;13.43;;;7.37;;
64887;SDS011;51386;53.082;8.816;2023-04-22T08:15:28;7.47;;;6.40;;
64887;SDS011;51386;53.082;8.816;2023-04-22T08:17:55;7.33;;;6.50;;
64887;SDS011;51386;53.082;8.816;2023-04-22T08:20:23;7.93;;;6.83;;
64887;SDS011;51386;53.082;8.816;2023-04-22T08:22:51;6.50;;;6.00;;
64887;SDS011;51386;53.082;8.816;2023-04-22T08:25:23;7.70;;;7.00;;
64887;SDS011;51386;53.082;8.816;2023-04-22T08:27:50;7.03;;;5.67;;
64887;SDS011;51386;53.082;8.816;2023-04-22T08:30:17;6.70;;;5.97;;
64887;SDS011;51386;53.082;8.816;2023-04-22T08:32:46;6.50;;;5.90;;
64887;SDS011;51386;53.082;8.816;2023-04-22T08:35:13;10.37;;;7.80;;
64887;SDS011;51386;53.082;8.816;2023-04-22T08:37:40;7.37;;;6.70;;
64887;SDS011;51386;53.082;8.816;2023-04-22T08:40:07;8.33;;;6.13;;
64887;SDS011;51386;53.082;8.816;2023-04-22T08:42:35;6.07;;;5.47;;
64887;SDS011;51386;53.082;8.816;2023-04-22T08:45:03;7.13;;;5.90;;
64887;SDS011;51386;53.082;8.816;2023-04-22T08:47:31;6.40;;;5.80;;
64887;SDS011;51386;53.082;8.816;2023-04-22T08:50:02;6.70;;;6.00;;
64887;SDS011;51386;53.082;8.816;2023-04-22T08:52:31;6.03;;;5.47;;
64887;SDS011;51386;53.082;8.816;2023-04-22T08:54:58;6.83;;;6.23;;
64887;SDS011;51386;53.082;8.816;2023-04-22T08:57:26;6.13;;;5.50;;
64887;SDS011;51386;53.082;8.816;2023-04-22T08:59:54;6.63;;;6.07;;
64887;SDS011;51386;53.082;8.816;2023-04-22T09:02:22;7.40;;;5.57;;
64887;SDS011;51386;53.082;8.816;2023-04-22T09:04:51;6.13;;;5.53;;
64887;SDS011;51386;53.082;8.816;2023-04-22T09:07:23;6.23;;;5.63;;
64887;SDS011;51386;53.082;8.816;2023-04-22T09:09:53;5.87;;;5.37;;
64887;SDS011;51386;53.082;8.816;2023-04-22T09:12:21;6.97;;;5.37;;
64887;SDS011;51386;53.082;8.816;2023-04-22T09:14:50;5.53;;;5.03;;
64887;SDS011;51386;53.082;8.816;2023-04-22T09:17:29;5.23;;;4.77;;
64887;SDS011;51386;53.082;8.816;2023-04-22T09:19:59;5.93;;;5.43;;
64887;SDS011;51386;53.082;8.816;2023-04-22T09:22:35;9.03;;;6.13;;
64887;SDS011;51386;53.082;8.816;2023-04-22T09:25:05;7.63;;;5.15;;
64887;SDS011;51386;53.082;8.816;2023-04-22T09:27:41;7.82;;;6.07;;
64887;SDS011;51386;53.082;8.816;2023-04-22T09:30:15;6.80;;;5.88;;
64887;SDS011;51386;53.082;8.816;2023-04-22T09:32:51;6.13;;;5.53;;
64887;SDS011;51386;53.082;8.816;2023-04-22T09:35:27;8.45;;;5.65;;
64887;SDS011;51386;53.082;8.816;2023-04-22T09:37:58;5.88;;;5.38;;
64887;SDS011;51386;53.082;8.816;2023-04-22T09:40:28;6.63;;;5.93;;
64887;SDS011;51386;53.082;8.816;2023-04-22T09:42:58;9.43;;;5.78;;
64887;SDS011;51386;53.082;8.816;2023-04-22T09:45:29;5.97;;;5.47;;
64887;SDS011;51386;53.082;8.816;2023-04-22T09:47:59;6.22;;;5.72;;
64887;SDS011;51386;53.082;8.816;2023-04-22T09:50:31;6.90;;;6.18;;
64887;SDS011;51386;53.082;8.816;2023-04-22T09:53:00;7.13;;;5.70;;
64887;SDS011;51386;53.082;8.816;2023-04-22T09:55:31;6.32;;;4.95;;
64887;SDS011;51386;53.082;8.816;2023-04-22T09:58:04;5.68;;;5.18;;
64887;SDS011;51386;53.082;8.816;2023-04-22T10:00:34;6.40;;;5.72;;
64887;SDS011;51386;53.082;8.816;2023-04-22T10:03:05;6.65;;;6.03;;
64887;SDS011;51386;53.082;8.816;2023-04-22T10:05:36;6.38;;;5.22;;
64887;SDS011;51386;53.082;8.816;2023-04-22T10:08:05;5.63;;;5.03;;
64887;SDS011;51386;53.082;8.816;2023-04-22T10:10:37;5.50;;;4.95;;
64887;SDS011;51386;53.082;8.816;2023-04-22T10:13:05;5.40;;;4.90;;
64887;SDS011;51386;53.082;8.816;2023-04-22T10:15:33;5.07;;;4.68;;
64887;SDS011;51386;53.082;8.816;2023-04-22T10:18:06;4.72;;;4.13;;
64887;SDS011;51386;53.082;8.816;2023-04-22T10:20:39;5.15;;;4.75;;
64887;SDS011;51386;53.082;8.816;2023-04-22T10:23:14;5.25;;;4.85;;
64887;SDS011;51386;53.082;8.816;2023-04-22T10:25:46;5.20;;;4.70;;
64887;SDS011;51386;53.082;8.816;2023-04-22T10:28:14;5.95;;;4.05;;
64887;SDS011;51386;53.082;8.816;2023-04-22T10:30:46;5.63;;;4.60;;
64887;SDS011;51386;53.082;8.816;2023-04-22T10:36:09;4.80;;;4.38;;
64887;SDS011;51386;53.082;8.816;2023-04-22T10:41:49;5.53;;;4.55;;
64887;SDS011;51386;53.082;8.816;2023-04-22T10:44:26;5.13;;;4.63;;
64887;SDS011;51386;53.082;8.816;2023-04-22T10:46:56;6.93;;;4.55;;
64887;SDS011;51386;53.082;8.816;2023-04-22T10:49:25;5.75;;;4.30;;
64887;SDS011;51386;53.082;8.816;2023-04-22T10:51:57;4.55;;;4.10;;
64887;SDS011;51386;53.082;8.816;2023-04-22T10:57:28;3.72;;;3.42;;
64887;SDS011;51386;53.082;8.816;2023-04-22T11:00:19;3.97;;;3.38;;
64887;SDS011;51386;53.082;8.816;2023-04-22T11:02:51;4.47;;;3.67;;
64887;SDS011;51386;53.082;8.816;2023-04-22T11:05:31;3.60;;;3.30;;
64887;SDS011;51386;53.082;8.816;2023-04-22T11:08:01;4.93;;;3.30;;
64887;SDS011;51386;53.082;8.816;2023-04-22T11:10:37;4.65;;;3.60;;
64887;SDS011;51386;53.082;8.816;2023-04-22T11:13:10;2.97;;;2.78;;
64887;SDS011;51386;53.082;8.816;2023-04-22T11:15:41;3.05;;;2.72;;
64887;SDS011;51386;53.082;8.816;2023-04-22T11:18:12;4.22;;;3.78;;
64887;SDS011;51386;53.082;8.816;2023-04-22T11:20:43;5.38;;;3.25;;
64887;SDS011;51386;53.082;8.816;2023-04-22T11:23:10;3.63;;;3.33;;
64887;SDS011;51386;53.082;8.816;2023-04-22T11:25:43;3.30;;;3.00;;
64887;SDS011;51386;53.082;8.816;2023-04-22T11:28:10;3.38;;;3.08;;
64887;SDS011;51386;53.082;8.816;2023-04-22T11:30:37;5.03;;;3.00;;
64887;SDS011;51386;53.082;8.816;2023-04-22T11:33:04;3.40;;;3.20;;
64887;SDS011;51386;53.082;8.816;2023-04-22T11:35:32;2.97;;;2.78;;
64887;SDS011;51386;53.082;8.816;2023-04-22T11:38:01;4.88;;;3.03;;
64887;SDS011;51386;53.082;8.816;2023-04-22T11:40:31;3.08;;;2.88;;
64887;SDS011;51386;53.082;8.816;2023-04-22T11:43:05;5.68;;;3.22;;
64887;SDS011;51386;53.082;8.816;2023-04-22T11:45:35;2.70;;;2.47;;
64887;SDS011;51386;53.082;8.816;2023-04-22T11:48:04;2.85;;;2.55;;
64887;SDS011;51386;53.082;8.816;2023-04-22T11:50:34;4.30;;;2.78;;
64887;SDS011;51386;53.082;8.816;2023-04-22T11:53:03;3.00;;;2.70;;
64887;SDS011;51386;53.082;8.816;2023-04-22T11:55:39;2.80;;;2.50;;
64887;SDS011;51386;53.082;8.816;2023-04-22T11:58:10;3.30;;;2.53;;
64887;SDS011;51386;53.082;8.816;2023-04-22T12:00:40;3.22;;;2.72;;
64887;SDS011;51386;53.082;8.816;2023-04-22T12:03:11;2.95;;;2.22;;
64887;SDS011;51386;53.082;8.816;2023-04-22T12:05:42;3.30;;;2.45;;
64887;SDS011;51386;53.082;8.816;2023-04-22T12:08:12;3.03;;;2.72;;
64887;SDS011;51386;53.082;8.816;2023-04-22T12:10:42;3.90;;;2.58;;
64887;SDS011;51386;53.082;8.816;2023-04-22T12:13:17;2.90;;;2.65;;
64887;SDS011;51386;53.082;8.816;2023-04-22T12:15:46;3.35;;;3.05;;
64887;SDS011;51386;53.082;8.816;2023-04-22T12:18:14;5.23;;;3.07;;
64887;SDS011;51386;53.082;8.816;2023-04-22T12:20:41;5.13;;;2.60;;
64887;SDS011;51386;53.082;8.816;2023-04-22T12:23:11;3.23;;;2.67;;
64887;SDS011;51386;53.082;8.816;2023-04-22T12:25:40;2.97;;;2.67;;
64887;SDS011;51386;53.082;8.816;2023-04-22T12:28:08;2.75;;;2.55;;
64887;SDS011;51386;53.082;8.816;2023-04-22T12:30:37;3.22;;;2.90;;
64887;SDS011;51386;53.082;8.816;2023-04-22T12:33:04;3.90;;;2.87;;
64887;SDS011;51386;53.082;8.816;2023-04-22T12:35:31;3.00;;;2.58;;
64887;SDS011;51386;53.082;8.816;2023-04-22T12:37:59;5.00;;;3.20;;
64887;SDS011;51386;53.082;8.816;2023-04-22T12:40:27;3.27;;;2.53;;
64887;SDS011;51386;53.082;8.816;2023-04-22T12:42:54;2.73;;;2.63;;
64887;SDS011;51386;53.082;8.816;2023-04-22T12:45:21;4.83;;;2.80;;
64887;SDS011;51386;53.082;8.816;2023-04-22T12:47:49;3.43;;;3.10;;
64887;SDS011;51386;53.082;8.816;2023-04-22T12:50:19;2.83;;;2.53;;
64887;SDS011;51386;53.082;8.816;2023-04-22T12:52:49;3.97;;;3.17;;
64887;SDS011;51386;53.082;8.816;2023-04-22T12:55:16;2.40;;;2.20;;
64887;SDS011;51386;53.082;8.816;2023-04-22T12:57:46;2.70;;;2.50;;
64887;SDS011;51386;53.082;8.816;2023-04-22T13:00:15;5.23;;;2.50;;
64887;SDS011;51386;53.082;8.816;2023-04-22T13:02:43;4.23;;;2.50;;
64887;SDS011;51386;53.082;8.816;2023-04-22T13:05:13;2.80;;;2.60;;
64887;SDS011;51386;53.082;8.816;2023-04-22T13:07:41;4.00;;;2.77;;
64887;SDS011;51386;53.082;8.816;2023-04-22T13:10:13;2.93;;;2.63;;
64887;SDS011;51386;53.082;8.816;2023-04-22T13:12:42;5.13;;;3.73;;
64887;SDS011;51386;53.082;8.816;2023-04-22T13:15:10;4.10;;;2.37;;
64887;SDS011;51386;53.082;8.816;2023-04-22T13:17:38;3.13;;;2.80;;
64887;SDS011;51386;53.082;8.816;2023-04-22T13:20:06;4.40;;;2.30;;
64887;SDS011;51386;53.082;8.816;2023-04-22T13:22:36;2.90;;;2.60;;
64887;SDS011;51386;53.082;8.816;2023-04-22T13:25:04;3.53;;;2.50;;
64887;SDS011;51386;53.082;8.816;2023-04-22T13:27:32;2.93;;;2.73;;
64887;SDS011;51386;53.082;8.816;2023-04-22T13:29:59;5.77;;;2.67;;
64887;SDS011;51386;53.082;8.816;2023-04-22T13:32:27;3.80;;;2.57;;
64887;SDS011;51386;53.082;8.816;2023-04-22T13:34:54;2.70;;;2.33;;
64887;SDS011;51386;53.082;8.816;2023-04-22T13:37:21;2.77;;;2.53;;
64887;SDS011;51386;53.082;8.816;2023-04-22T13:39:49;3.13;;;2.73;;
64887;SDS011;51386;53.082;8.816;2023-04-22T13:42:16;2.50;;;2.20;;
64887;SDS011;51386;53.082;8.816;2023-04-22T13:44:43;3.47;;;2.38;;
64887;SDS011;51386;53.082;8.816;2023-04-22T13:47:11;2.63;;;2.43;;
64887;SDS011;51386;53.082;8.816;2023-04-22T13:49:38;4.95;;;2.42;;
64887;SDS011;51386;53.082;8.816;2023-04-22T13:52:05;2.65;;;2.45;;
64887;SDS011;51386;53.082;8.816;2023-04-22T13:54:32;2.58;;;2.38;;
64887;SDS011;51386;53.082;8.816;2023-04-22T13:57:00;4.15;;;2.35;;
64887;SDS011;51386;53.082;8.816;2023-04-22T13:59:29;2.47;;;2.08;;
64887;SDS011;51386;53.082;8.816;2023-04-22T14:01:56;7.07;;;2.77;;
64887;SDS011;51386;53.082;8.816;2023-04-22T14:04:23;6.80;;;2.60;;
64887;SDS011;51386;53.082;8.816;2023-04-22T14:06:50;3.67;;;2.97;;
64887;SDS011;51386;53.082;8.816;2023-04-22T14:09:18;3.73;;;2.60;;
64887;SDS011;51386;53.082;8.816;2023-04-22T14:11:45;3.77;;;2.33;;
64887;SDS011;51386;53.082;8.816;2023-04-22T14:14:13;2.40;;;2.20;;
64887;SDS011;51386;53.082;8.816;2023-04-22T14:16:41;3.40;;;2.70;;
64887;SDS011;51386;53.082;8.816;2023-04-22T14:19:08;3.23;;;2.77;;
64887;SDS011;51386;53.082;8.816;2023-04-22T14:21:36;2.83;;;2.63;;
64887;SDS011;51386;53.082;8.816;2023-04-22T14:24:03;2.83;;;2.60;;
64887;SDS011;51386;53.082;8.816;2023-04-22T14:26:31;3.63;;;2.70;;
64887;SDS011;51386;53.082;8.816;2023-04-22T14:28:58;5.33;;;3.20;;
64887;SDS011;51386;53.082;8.816;2023-04-22T14:31:26;3.57;;;2.70;;
64887;SDS011;51386;53.082;8.816;2023-04-22T14:33:53;4.03;;;2.90;;
64887;SDS011;51386;53.082;8.816;2023-04-22T14:36:23;2.97;;;2.77;;
64887;SDS011;51386;53.082;8.816;2023-04-22T14:38:52;3.03;;;2.73;;
64887;SDS011;51386;53.082;8.816;2023-04-22T14:41:19;3.10;;;2.80;;
64887;SDS011;51386;53.082;8.816;2023-04-22T14:43:46;3.37;;;2.97;;
64887;SDS011;51386;53.082;8.816;2023-04-22T14:46:13;2.80;;;2.27;;
64887;SDS011;51386;53.082;8.816;2023-04-22T14:48:42;3.03;;;2.60;;
64887;SDS011;51386;53.082;8.816;2023-04-22T14:51:09;3.10;;;2.80;;
64887;SDS011;51386;53.082;8.816;2023-04-22T14:53:37;4.70;;;2.90;;
64887;SDS011;51386;53.082;8.816;2023-04-22T14:56:04;2.73;;;2.40;;
64887;SDS011;51386;53.082;8.816;2023-04-22T14:58:31;3.53;;;2.33;;
64887;SDS011;51386;53.082;8.816;2023-04-22T15:00:58;2.93;;;2.73;;
64887;SDS011;51386;53.082;8.816;2023-04-22T15:03:25;3.20;;;2.37;;